Time;durP1;ratioP1;P1;durP2;ratioP2;P2;SDS_P1;SDS_P2;PMS_P1;PMS_P2;Temp;Humidity;BMP_temperature;BMP_pressure;BME280_temperature;BME280_humidity;BME280_pressure;Samples;Min_cycle;Max_cycle;Signal;HPM_P1;HPM_P2
2021/09/08 00:01:46;;;;;;;8.55;4.30;;;22.60;96.70;;;;;;4963828;28;20413;-74
2021/09/08 00:04:15;;;;;;;5.15;3.65;;;22.80;96.70;;;;;;4958135;28;20077;-74
2021/09/08 00:06:44;;;;;;;5.68;4.07;;;22.80;96.70;;;;;;4961083;28;20055;-74
2021/09/08 00:09:13;;;;;;;4.22;3.70;;;22.70;96.70;;;;;;4941486;28;20338;-74
2021/09/08 00:11:43;;;;;;;4.53;3.58;;;22.40;96.70;;;;;;4962289;28;20162;-74
2021/09/08 00:14:12;;;;;;;5.28;3.63;;;22.40;96.70;;;;;;4959340;28;20050;-74
2021/09/08 00:16:40;;;;;;;5.53;3.67;;;22.40;96.70;;;;;;4961412;28;20031;-74
2021/09/08 00:19:09;;;;;;;7.95;4.50;;;22.40;96.70;;;;;;4958284;28;20125;-74
2021/09/08 00:21:38;;;;;;;5.57;3.97;;;22.30;96.70;;;;;;4962327;28;20478;-74
2021/09/08 00:24:06;;;;;;;4.78;3.95;;;22.40;96.70;;;;;;4966954;28;20113;-74
2021/09/08 00:26:35;;;;;;;5.13;3.80;;;22.60;96.70;;;;;;4960268;28;20057;-74
2021/09/08 00:29:11;;;;;;;6.53;3.78;;;22.50;96.70;;;;;;4960681;28;20043;-74
2021/09/08 00:31:40;;;;;;;7.88;3.70;;;22.50;96.70;;;;;;4961773;28;20078;-74
2021/09/08 00:34:10;;;;;;;6.25;4.43;;;22.60;96.70;;;;;;4959663;28;20547;-74
2021/09/08 00:36:39;;;;;;;6.70;4.03;;;22.50;96.70;;;;;;4960237;28;20051;-73
2021/09/08 00:39:08;;;;;;;7.07;3.97;;;22.50;96.70;;;;;;4962321;28;20070;-74
2021/09/08 00:41:37;;;;;;;5.30;4.05;;;22.60;96.70;;;;;;4954039;28;21032;-74
2021/09/08 00:44:09;;;;;;;5.95;4.20;;;22.40;96.70;;;;;;4959388;28;21152;-74
2021/09/08 00:46:41;;;;;;;4.63;3.90;;;22.30;96.70;;;;;;4963048;28;20105;-74
2021/09/08 00:49:10;;;;;;;5.18;3.97;;;22.20;96.70;;;;;;4971262;28;20074;-74
2021/09/08 00:51:40;;;;;;;6.25;3.67;;;22.20;96.70;;;;;;4962266;28;20440;-74
2021/09/08 00:54:12;;;;;;;6.55;4.57;;;22.00;96.70;;;;;;4960956;28;20370;-74
2021/09/08 00:56:44;;;;;;;5.57;4.10;;;22.00;96.70;;;;;;4963472;28;20050;-73
2021/09/08 00:59:12;;;;;;;4.97;4.20;;;22.10;96.70;;;;;;4966624;28;20053;-74
2021/09/08 01:01:44;;;;;;;6.53;3.65;;;22.00;96.70;;;;;;4964539;28;20105;-74
2021/09/08 01:04:16;;;;;;;6.88;4.00;;;22.10;96.70;;;;;;4944875;28;20050;-74
2021/09/08 01:06:45;;;;;;;6.30;4.13;;;22.10;96.70;;;;;;4959356;28;20485;-74
2021/09/08 01:09:17;;;;;;;5.47;3.65;;;22.10;96.70;;;;;;4963465;28;20066;-74
2021/09/08 01:11:46;;;;;;;4.10;3.70;;;21.90;96.70;;;;;;4960015;28;23848;-74
2021/09/08 01:14:16;;;;;;;6.50;4.20;;;21.70;96.70;;;;;;4969823;28;20055;-74
2021/09/08 01:16:49;;;;;;;6.07;4.40;;;21.50;96.70;;;;;;4957513;28;20051;-74
2021/09/08 01:19:18;;;;;;;4.20;3.80;;;21.60;96.70;;;;;;4963796;28;20085;-74
2021/09/08 01:21:46;;;;;;;6.38;3.90;;;21.70;96.70;;;;;;4958070;28;20390;-74
2021/09/08 01:24:18;;;;;;;6.32;4.32;;;21.70;96.70;;;;;;4960063;28;20140;-74
2021/09/08 01:26:48;;;;;;;5.20;3.83;;;21.70;96.70;;;;;;4961905;28;20409;-74
2021/09/08 01:29:17;;;;;;;6.82;3.95;;;21.70;96.70;;;;;;4961310;28;20497;-74
2021/09/08 01:31:53;;;;;;;5.18;4.07;;;21.60;96.70;;;;;;4942375;28;20106;-74
2021/09/08 01:34:22;;;;;;;5.25;4.30;;;21.50;96.70;;;;;;4953460;28;20066;-73
2021/09/08 01:36:51;;;;;;;4.85;3.90;;;21.40;96.70;;;;;;4962705;28;20043;-73
2021/09/08 01:39:23;;;;;;;5.90;4.07;;;21.40;96.70;;;;;;4956611;28;20070;-74
2021/09/08 01:41:52;;;;;;;4.63;3.83;;;21.40;96.70;;;;;;4961911;28;20039;-74
2021/09/08 01:44:22;;;;;;;3.95;3.55;;;21.30;96.70;;;;;;4962173;28;20523;-74
2021/09/08 01:46:52;;;;;;;7.55;3.90;;;21.20;96.70;;;;;;4960484;28;20078;-74
2021/09/08 01:49:21;;;;;;;5.22;4.07;;;21.20;96.70;;;;;;4961010;28;20110;-74
2021/09/08 01:51:49;;;;;;;5.13;4.00;;;21.20;96.70;;;;;;4965308;28;20046;-74
2021/09/08 01:54:20;;;;;;;5.50;3.88;;;21.20;96.70;;;;;;4955443;28;20057;-73
2021/09/08 01:56:50;;;;;;;9.93;3.65;;;21.20;96.70;;;;;;4971366;28;20042;-74
2021/09/08 01:59:18;;;;;;;5.93;4.30;;;21.00;96.70;;;;;;4958565;28;20051;-74
2021/09/08 02:01:47;;;;;;;6.13;4.10;;;21.00;96.70;;;;;;4976343;28;20039;-73
2021/09/08 02:04:16;;;;;;;5.40;3.80;;;21.00;96.70;;;;;;4962055;28;20501;-74
2021/09/08 02:06:48;;;;;;;4.75;3.70;;;20.90;96.70;;;;;;4958432;28;20413;-74
2021/09/08 02:09:18;;;;;;;9.25;4.40;;;21.00;96.70;;;;;;4965601;28;20528;-74
2021/09/08 02:11:46;;;;;;;5.03;3.88;;;20.90;96.70;;;;;;4961320;28;20457;-74
2021/09/08 02:14:17;;;;;;;11.10;4.07;;;20.80;96.70;;;;;;4964405;28;20400;-73
2021/09/08 02:16:46;;;;;;;6.53;4.00;;;20.90;96.70;;;;;;4974842;28;20043;-74
2021/09/08 02:19:14;;;;;;;3.90;3.33;;;21.00;96.70;;;;;;4960817;28;20043;-74
2021/09/08 02:21:43;;;;;;;6.53;4.30;;;20.90;96.70;;;;;;4962454;28;20514;-74
2021/09/08 02:24:12;;;;;;;4.78;4.10;;;20.90;96.70;;;;;;4967287;28;20045;-74
2021/09/08 02:26:41;;;;;;;4.30;3.90;;;20.90;96.70;;;;;;4960758;28;20055;-74
2021/09/08 02:29:10;;;;;;;6.40;4.22;;;21.00;96.70;;;;;;4961740;28;20043;-74
2021/09/08 02:31:40;;;;;;;4.75;3.80;;;21.00;96.70;;;;;;4961821;28;20311;-74
2021/09/08 02:34:09;;;;;;;4.07;3.58;;;20.80;96.70;;;;;;4971240;28;20062;-74
2021/09/08 02:36:37;;;;;;;6.30;3.97;;;20.70;96.70;;;;;;4958490;28;20035;-74
2021/09/08 02:39:07;;;;;;;5.85;4.25;;;20.90;96.70;;;;;;4967020;28;20074;-74
2021/09/08 02:41:35;;;;;;;5.57;4.00;;;20.80;96.70;;;;;;4958388;28;20414;-74
2021/09/08 02:44:09;;;;;;;5.25;3.50;;;20.70;96.70;;;;;;4947280;28;20433;-74
2021/09/08 02:46:39;;;;;;;4.65;4.00;;;20.60;96.70;;;;;;4959130;28;20039;-74
2021/09/08 02:49:09;;;;;;;5.85;4.25;;;20.60;96.70;;;;;;4963364;28;20055;-74
2021/09/08 02:51:37;;;;;;;6.13;3.67;;;20.50;96.70;;;;;;4958769;28;20102;-74
2021/09/08 02:54:05;;;;;;;6.00;3.90;;;20.20;96.70;;;;;;4958614;28;20051;-73
2021/09/08 02:56:33;;;;;;;6.25;3.90;;;20.20;96.70;;;;;;4962578;28;20043;-74
2021/09/08 02:59:01;;;;;;;4.60;3.78;;;20.20;96.70;;;;;;4981493;28;20055;-74
2021/09/08 03:01:29;;;;;;;7.22;4.05;;;20.30;96.70;;;;;;4958047;28;20046;-74
2021/09/08 03:03:59;;;;;;;8.13;4.05;;;20.20;96.70;;;;;;4964082;28;20323;-74
2021/09/08 03:06:27;;;;;;;6.50;4.22;;;20.20;96.70;;;;;;4961270;28;20726;-74
2021/09/08 03:08:57;;;;;;;7.70;4.15;;;20.20;96.70;;;;;;4962654;28;20167;-73
2021/09/08 03:11:26;;;;;;;4.63;4.20;;;20.20;96.70;;;;;;4962761;28;20050;-74
2021/09/08 03:13:55;;;;;;;5.32;4.03;;;20.30;96.70;;;;;;4961747;28;20050;-74
2021/09/08 03:16:25;;;;;;;5.03;4.15;;;20.30;96.70;;;;;;4963276;28;20560;-73
2021/09/08 03:18:53;;;;;;;5.47;3.50;;;20.30;96.70;;;;;;4960158;28;20047;-74
2021/09/08 03:21:22;;;;;;;4.43;3.58;;;20.30;96.70;;;;;;4961457;28;20110;-74
2021/09/08 03:23:50;;;;;;;7.28;3.90;;;20.20;96.70;;;;;;4961069;28;20410;-74
2021/09/08 03:26:18;;;;;;;4.45;4.05;;;20.20;96.70;;;;;;4965180;28;20046;-74
2021/09/08 03:28:46;;;;;;;4.75;3.83;;;20.10;96.70;;;;;;4961466;28;20512;-74
2021/09/08 03:31:14;;;;;;;5.88;4.28;;;20.20;96.70;;;;;;4958303;28;20062;-74
2021/09/08 03:33:42;;;;;;;4.30;3.83;;;20.10;96.70;;;;;;4962004;28;20058;-74
2021/09/08 03:36:10;;;;;;;5.65;3.75;;;20.20;96.70;;;;;;4957341;28;20066;-74
2021/09/08 03:38:40;;;;;;;5.15;3.80;;;20.10;96.70;;;;;;4964338;28;20046;-74
2021/09/08 03:41:08;;;;;;;5.57;4.00;;;19.90;96.70;;;;;;4957192;28;20046;-74
2021/09/08 03:43:36;;;;;;;4.68;3.78;;;19.80;96.70;;;;;;4960002;28;20098;-74
2021/09/08 03:46:06;;;;;;;5.82;4.00;;;19.70;96.70;;;;;;4957579;28;20034;-74
2021/09/08 03:48:35;;;;;;;5.60;4.18;;;19.60;96.70;;;;;;4968591;28;20066;-74
2021/09/08 03:51:03;;;;;;;5.20;3.97;;;19.50;96.70;;;;;;4958649;28;20047;-74
2021/09/08 03:53:31;;;;;;;5.10;4.18;;;19.60;96.70;;;;;;4961411;28;20345;-74
2021/09/08 03:56:00;;;;;;;5.65;4.65;;;19.60;96.70;;;;;;4965043;28;20340;-74
2021/09/08 03:58:28;;;;;;;9.27;4.63;;;19.60;96.70;;;;;;4979528;28;20114;-74
2021/09/08 04:00:56;;;;;;;5.97;4.47;;;19.50;96.70;;;;;;4963301;28;20835;-73
2021/09/08 04:03:25;;;;;;;7.97;4.43;;;19.50;96.70;;;;;;4963464;28;20082;-73
2021/09/08 04:05:54;;;;;;;6.68;4.75;;;19.60;96.70;;;;;;4961645;28;20489;-74
2021/09/08 04:08:22;;;;;;;9.43;4.57;;;19.50;96.70;;;;;;4963582;28;20038;-74
2021/09/08 04:10:50;;;;;;;6.32;4.55;;;19.50;96.70;;;;;;4944398;28;20061;-74
2021/09/08 04:13:20;;;;;;;7.05;4.43;;;19.70;96.70;;;;;;4962032;28;20524;-74
2021/09/08 04:15:48;;;;;;;5.72;4.20;;;19.70;96.70;;;;;;4960485;28;20071;-74
2021/09/08 04:18:16;;;;;;;6.22;4.88;;;19.70;96.70;;;;;;4962192;28;20039;-74
2021/09/08 04:20:44;;;;;;;8.95;4.82;;;19.90;96.70;;;;;;4957894;28;20097;-74
2021/09/08 04:23:12;;;;;;;8.65;4.85;;;19.90;96.70;;;;;;4958305;28;20346;-74
2021/09/08 04:25:40;;;;;;;6.07;4.70;;;19.80;96.70;;;;;;4961207;28;20035;-74
2021/09/08 04:28:08;;;;;;;6.63;4.47;;;19.70;96.70;;;;;;4961084;28;20509;-74
2021/09/08 04:30:38;;;;;;;5.40;4.20;;;19.60;96.70;;;;;;4960035;28;20043;-73
2021/09/08 04:33:09;;;;;;;5.15;4.25;;;19.50;96.70;;;;;;4956750;28;20161;-73
2021/09/08 04:35:40;;;;;;;5.70;4.15;;;19.60;96.70;;;;;;4990523;28;20094;-74
2021/09/08 04:38:08;;;;;;;6.38;4.35;;;19.60;96.70;;;;;;4957765;28;20067;-73
2021/09/08 04:40:36;;;;;;;5.25;4.10;;;19.60;96.70;;;;;;4962691;28;20043;-74
2021/09/08 04:43:04;;;;;;;6.57;4.60;;;19.50;96.70;;;;;;4959280;28;20475;-74
2021/09/08 04:45:32;;;;;;;5.43;4.00;;;19.50;96.70;;;;;;4962795;28;20066;-74
2021/09/08 04:48:02;;;;;;;4.88;4.25;;;19.40;96.70;;;;;;4945205;28;20047;-74
2021/09/08 04:50:30;;;;;;;9.48;4.55;;;19.30;96.70;;;;;;4943899;28;20086;-73
2021/09/08 04:52:58;;;;;;;5.45;4.38;;;19.30;96.70;;;;;;4958996;28;20399;-74
2021/09/08 04:55:27;;;;;;;5.78;4.30;;;19.40;96.70;;;;;;4946321;28;20046;-74
2021/09/08 04:57:55;;;;;;;5.85;4.13;;;19.20;96.70;;;;;;4961645;28;20042;-74
2021/09/08 05:00:23;;;;;;;5.82;4.40;;;19.20;96.70;;;;;;4960079;28;20050;-74
2021/09/08 05:02:51;;;;;;;5.65;3.95;;;19.20;96.70;;;;;;4946881;28;20051;-74
2021/09/08 05:05:21;;;;;;;6.65;3.72;;;19.20;96.70;;;;;;4960608;28;20122;-74
2021/09/08 05:07:49;;;;;;;6.63;3.92;;;19.10;96.70;;;;;;4961759;28;20546;-74
2021/09/08 05:10:18;;;;;;;7.07;4.88;;;19.10;96.70;;;;;;4959657;28;20406;-74
2021/09/08 05:12:46;;;;;;;6.40;4.38;;;19.10;96.70;;;;;;4960065;28;20497;-73
2021/09/08 05:15:14;;;;;;;6.20;4.18;;;19.10;96.70;;;;;;4958742;28;20047;-74
2021/09/08 05:17:42;;;;;;;7.43;4.60;;;19.10;96.70;;;;;;4958811;28;20489;-74
2021/09/08 05:20:10;;;;;;;10.13;4.90;;;19.00;96.70;;;;;;4958712;28;20047;-74
2021/09/08 05:22:40;;;;;;;6.28;4.53;;;19.00;96.70;;;;;;4960167;28;20383;-74
2021/09/08 05:25:09;;;;;;;11.32;5.13;;;19.10;96.70;;;;;;4959508;28;20097;-73
2021/09/08 05:27:37;;;;;;;5.60;4.22;;;19.10;96.70;;;;;;4992694;28;20047;-74
2021/09/08 05:30:06;;;;;;;5.63;4.75;;;19.10;96.70;;;;;;4958303;28;20466;-74
2021/09/08 05:32:34;;;;;;;7.22;4.63;;;19.20;96.70;;;;;;4962197;28;20231;-74
2021/09/08 05:35:12;;;;;;;6.82;4.82;;;19.30;96.70;;;;;;4946492;28;20046;-73
2021/09/08 05:37:42;;;;;;;6.25;4.30;;;19.30;96.70;;;;;;4959111;28;20379;-74
2021/09/08 05:40:11;;;;;;;7.38;4.93;;;19.20;96.70;;;;;;4961029;28;20306;-74
2021/09/08 05:42:39;;;;;;;8.20;4.93;;;19.40;96.70;;;;;;4964068;28;20047;-73
2021/09/08 05:45:07;;;;;;;5.85;5.07;;;19.50;96.70;;;;;;4973470;28;20046;-74
2021/09/08 05:47:36;;;;;;;5.28;4.40;;;19.60;96.70;;;;;;4959735;28;20043;-74
2021/09/08 05:50:06;;;;;;;7.43;4.70;;;19.60;96.70;;;;;;4958513;28;21194;-74
2021/09/08 05:52:34;;;;;;;7.68;4.68;;;19.70;96.70;;;;;;4961059;28;20129;-74
2021/09/08 05:55:04;;;;;;;7.78;4.65;;;19.70;96.70;;;;;;4963185;28;20501;-73
2021/09/08 05:57:33;;;;;;;10.95;5.28;;;19.60;96.70;;;;;;4964058;28;20039;-74
2021/09/08 06:00:01;;;;;;;13.10;6.03;;;19.60;96.70;;;;;;4964764;28;20054;-74
2021/09/08 06:02:37;;;;;;;6.63;5.28;;;19.60;96.70;;;;;;4964121;28;20540;-73
2021/09/08 06:05:07;;;;;;;7.57;4.35;;;19.50;96.70;;;;;;4963851;28;20051;-73
2021/09/08 06:07:37;;;;;;;8.80;5.10;;;19.60;96.70;;;;;;4976189;28;20043;-74
2021/09/08 06:10:07;;;;;;;8.00;5.00;;;19.60;96.70;;;;;;4963205;28;20145;-74
2021/09/08 06:12:35;;;;;;;10.40;5.47;;;19.70;96.70;;;;;;4968666;28;20061;-74
2021/09/08 06:15:05;;;;;;;7.95;5.60;;;19.80;96.70;;;;;;4965117;28;20788;-74
2021/09/08 06:17:34;;;;;;;8.25;6.30;;;20.00;96.70;;;;;;4967093;28;20066;-74
2021/09/08 06:20:03;;;;;;;9.57;5.03;;;20.00;96.70;;;;;;4969922;28;20058;-73
2021/09/08 06:22:31;;;;;;;10.77;5.82;;;20.10;96.70;;;;;;4976433;28;20042;-75
2021/09/08 06:25:00;;;;;;;10.00;5.97;;;20.00;96.70;;;;;;4969885;28;20074;-75
2021/09/08 06:27:29;;;;;;;10.40;5.55;;;20.00;96.70;;;;;;4963131;28;20047;-75
2021/09/08 06:29:58;;;;;;;13.88;6.53;;;20.20;96.70;;;;;;4965359;28;20080;-76
2021/09/08 06:32:26;;;;;;;22.63;6.80;;;20.20;96.70;;;;;;4963472;28;20075;-75
2021/09/08 06:34:54;;;;;;;9.00;5.68;;;20.30;96.70;;;;;;4965225;28;20054;-75
2021/09/08 06:37:22;;;;;;;11.88;6.05;;;20.30;96.70;;;;;;4965084;28;20093;-75
2021/09/08 06:39:51;;;;;;;17.23;6.70;;;20.40;96.70;;;;;;4964393;28;20046;-75
2021/09/08 06:42:19;;;;;;;21.30;7.07;;;20.40;96.70;;;;;;4964659;28;20054;-75
2021/09/08 06:44:54;;;;;;;18.00;6.97;;;20.50;96.70;;;;;;4966134;28;20042;-75
2021/09/08 06:47:24;;;;;;;12.50;6.72;;;20.40;96.70;;;;;;4963866;28;20146;-75
2021/09/08 06:49:53;;;;;;;15.82;6.35;;;20.50;96.70;;;;;;4980493;28;20074;-75
2021/09/08 06:52:21;;;;;;;14.95;6.78;;;20.50;96.70;;;;;;4963864;28;20051;-75
2021/09/08 06:54:49;;;;;;;9.45;5.55;;;20.50;96.70;;;;;;4959023;28;20494;-75
2021/09/08 06:57:18;;;;;;;8.80;4.88;;;20.60;96.70;;;;;;4964696;28;20077;-75
2021/09/08 06:59:46;;;;;;;10.13;5.25;;;20.60;96.70;;;;;;4963389;28;20473;-75
2021/09/08 07:02:16;;;;;;;9.77;5.85;;;20.60;96.70;;;;;;4961362;28;20042;-75
2021/09/08 07:04:45;;;;;;;6.85;4.68;;;20.70;96.70;;;;;;4955815;28;20068;-75
2021/09/08 07:07:13;;;;;;;9.15;5.28;;;20.60;96.70;;;;;;4965523;28;20043;-75
2021/09/08 07:09:41;;;;;;;7.38;5.03;;;20.70;96.70;;;;;;4947333;28;20586;-75
2021/09/08 07:12:10;;;;;;;7.78;4.93;;;20.80;96.70;;;;;;4964681;28;20505;-75
2021/09/08 07:14:38;;;;;;;7.43;4.82;;;20.90;96.70;;;;;;4961957;28;20489;-75
2021/09/08 07:17:06;;;;;;;7.55;4.85;;;21.10;96.70;;;;;;4963059;28;20145;-75
2021/09/08 07:19:37;;;;;;;7.95;5.13;;;21.20;96.20;;;;;;4963812;28;20043;-75
2021/09/08 07:22:08;;;;;;;28.30;6.53;;;21.30;95.10;;;;;;4961595;28;20038;-76
2021/09/08 07:24:38;;;;;;;9.45;4.85;;;21.40;94.90;;;;;;4962901;28;20421;-75
2021/09/08 07:27:19;;;;;;;5.53;4.65;;;21.40;94.50;;;;;;4959626;28;20050;-75
2021/09/08 07:29:54;;;;;;;9.52;4.80;;;21.50;94.00;;;;;;4964578;28;20386;-75
2021/09/08 07:32:23;;;;;;;8.70;5.22;;;21.60;93.80;;;;;;4965933;28;20050;-75
2021/09/08 07:34:57;;;;;;;7.60;5.05;;;21.70;93.40;;;;;;4961416;28;20054;-76
2021/09/08 07:37:27;;;;;;;12.35;5.65;;;21.90;93.40;;;;;;4947628;28;20053;-75
2021/09/08 07:39:55;;;;;;;8.30;5.07;;;22.00;93.40;;;;;;4961135;28;20489;-75
2021/09/08 07:42:23;;;;;;;6.68;5.07;;;22.00;93.10;;;;;;4988077;28;20997;-76
2021/09/08 07:44:57;;;;;;;8.60;4.72;;;22.10;92.90;;;;;;4983678;28;20043;-75
2021/09/08 07:47:25;;;;;;;5.88;4.95;;;22.20;92.80;;;;;;4965068;28;20043;-75
2021/09/08 07:49:55;;;;;;;8.48;5.07;;;22.30;92.20;;;;;;4958583;28;20117;-76
2021/09/08 07:52:23;;;;;;;9.80;5.88;;;22.40;92.50;;;;;;4956252;28;20494;-75
2021/09/08 07:54:52;;;;;;;10.77;5.38;;;22.40;92.90;;;;;;4960652;28;20555;-75
2021/09/08 07:57:20;;;;;;;9.13;5.57;;;22.50;92.70;;;;;;4954644;28;20963;-75
2021/09/08 07:59:49;;;;;;;7.75;5.70;;;22.60;92.70;;;;;;4962741;28;20074;-76
2021/09/08 08:02:17;;;;;;;9.23;5.40;;;22.60;92.50;;;;;;4960576;28;20046;-75
2021/09/08 08:04:46;;;;;;;7.60;5.85;;;22.70;92.80;;;;;;4945553;28;20162;-75
2021/09/08 08:07:16;;;;;;;5.88;5.28;;;22.80;92.70;;;;;;4959811;28;20042;-75
2021/09/08 08:09:44;;;;;;;9.27;5.97;;;22.90;92.70;;;;;;4960597;28;20405;-75
2021/09/08 08:12:12;;;;;;;8.18;5.63;;;23.00;92.60;;;;;;4963267;28;20466;-76
2021/09/08 08:14:40;;;;;;;9.60;5.82;;;23.00;92.60;;;;;;4963954;28;20070;-75
2021/09/08 08:17:09;;;;;;;13.10;5.55;;;23.20;92.30;;;;;;4954575;28;20573;-75
2021/09/08 08:19:37;;;;;;;8.93;5.25;;;23.30;91.90;;;;;;4962300;28;20051;-75
2021/09/08 08:22:05;;;;;;;9.90;5.03;;;23.50;91.70;;;;;;4960839;28;20048;-75
2021/09/08 08:24:35;;;;;;;11.00;5.10;;;23.60;91.10;;;;;;4963428;28;20039;-76
2021/09/08 08:27:04;;;;;;;6.85;5.20;;;23.80;90.70;;;;;;4962098;28;20057;-75
2021/09/08 08:29:33;;;;;;;10.57;5.10;;;23.80;90.10;;;;;;4962162;28;20050;-75
2021/09/08 08:32:02;;;;;;;5.55;4.13;;;24.00;90.00;;;;;;4952553;28;20055;-75
2021/09/08 08:34:30;;;;;;;8.55;4.40;;;24.20;89.30;;;;;;4957121;28;20074;-76
2021/09/08 08:36:59;;;;;;;6.45;4.43;;;24.30;89.40;;;;;;4958755;28;20544;-75
2021/09/08 08:39:27;;;;;;;8.52;4.30;;;24.50;88.40;;;;;;4967736;28;20504;-75
2021/09/08 08:42:02;;;;;;;6.45;4.47;;;24.60;87.70;;;;;;4963900;28;20057;-75
2021/09/08 08:44:30;;;;;;;6.18;4.47;;;24.70;86.60;;;;;;4950591;28;20075;-75
2021/09/08 08:47:00;;;;;;;8.60;4.88;;;24.80;87.00;;;;;;4957426;28;20039;-76
2021/09/08 08:49:29;;;;;;;6.85;4.50;;;25.00;86.10;;;;;;4978933;28;20114;-75
2021/09/08 08:51:57;;;;;;;9.05;4.82;;;25.10;85.40;;;;;;4958669;28;20127;-76
2021/09/08 08:54:26;;;;;;;8.40;5.20;;;25.20;85.30;;;;;;4963491;28;20060;-76
2021/09/08 08:56:54;;;;;;;6.85;4.50;;;25.30;85.60;;;;;;4962191;28;20051;-76
2021/09/08 08:59:24;;;;;;;8.25;4.53;;;25.40;85.10;;;;;;4962212;28;20055;-75
2021/09/08 09:01:52;;;;;;;5.15;4.32;;;25.40;84.70;;;;;;4945788;28;20050;-75
2021/09/08 09:04:21;;;;;;;6.38;4.45;;;25.60;83.70;;;;;;4962697;28;20076;-76
2021/09/08 09:06:50;;;;;;;4.32;3.67;;;25.80;82.40;;;;;;4959337;28;20042;-75
2021/09/08 09:09:19;;;;;;;4.68;4.03;;;25.90;80.90;;;;;;4963375;28;20050;-76
2021/09/08 09:11:49;;;;;;;4.90;3.70;;;26.00;80.40;;;;;;4962012;28;20058;-76
2021/09/08 09:14:18;;;;;;;6.40;4.15;;;26.10;79.90;;;;;;4980568;28;20106;-75
2021/09/08 09:16:48;;;;;;;4.72;4.22;;;26.30;79.10;;;;;;4965968;28;20047;-75
2021/09/08 09:19:16;;;;;;;4.18;3.65;;;26.40;79.40;;;;;;4968945;28;20064;-76
2021/09/08 09:21:45;;;;;;;6.65;3.78;;;26.50;79.70;;;;;;4969444;28;20116;-75
2021/09/08 09:24:16;;;;;;;4.90;3.90;;;26.70;78.30;;;;;;4955444;28;20286;-75
2021/09/08 09:26:44;;;;;;;5.60;4.03;;;26.70;78.30;;;;;;4966114;28;20051;-75
2021/09/08 09:29:16;;;;;;;8.43;4.13;;;27.00;76.80;;;;;;4963603;28;20063;-76
2021/09/08 09:31:56;;;;;;;5.15;3.95;;;27.10;77.20;;;;;;4966802;28;20054;-76
2021/09/08 09:34:28;;;;;;;5.03;3.60;;;27.10;77.20;;;;;;4961751;28;20449;-76
2021/09/08 09:36:58;;;;;;;5.93;3.85;;;27.20;76.40;;;;;;4977270;28;20134;-76
2021/09/08 09:39:31;;;;;;;4.88;4.07;;;27.20;76.50;;;;;;4962595;28;20093;-76
2021/09/08 09:42:00;;;;;;;4.47;3.92;;;27.30;76.40;;;;;;4965640;28;20047;-75
2021/09/08 09:44:31;;;;;;;5.05;3.67;;;27.40;76.10;;;;;;4968908;28;20620;-75
2021/09/08 09:47:02;;;;;;;6.88;4.00;;;27.50;75.50;;;;;;4959265;28;20454;-76
2021/09/08 09:49:33;;;;;;;6.32;4.05;;;27.70;75.30;;;;;;4959388;28;20039;-76
2021/09/08 09:52:04;;;;;;;6.00;3.97;;;27.80;75.40;;;;;;4961758;28;20438;-76
2021/09/08 09:54:33;;;;;;;4.60;4.05;;;27.90;74.30;;;;;;4960170;28;20179;-76
2021/09/08 09:57:03;;;;;;;6.53;4.22;;;28.00;73.50;;;;;;4983877;28;20065;-76
2021/09/08 09:59:33;;;;;;;6.65;3.92;;;28.10;72.80;;;;;;4960705;28;20062;-75
2021/09/08 10:02:03;;;;;;;5.22;4.00;;;28.20;72.80;;;;;;4965511;28;20145;-76
2021/09/08 10:04:32;;;;;;;5.95;3.95;;;28.20;72.00;;;;;;4962047;28;20053;-76
2021/09/08 10:07:03;;;;;;;5.30;4.07;;;28.30;71.80;;;;;;4966390;28;20035;-75
2021/09/08 10:09:32;;;;;;;4.25;3.67;;;28.40;71.90;;;;;;4963258;28;20394;-75
2021/09/08 10:12:04;;;;;;;4.40;4.00;;;28.40;71.70;;;;;;4964793;28;20453;-76
2021/09/08 10:14:33;;;;;;;6.55;3.60;;;28.50;72.00;;;;;;4961342;28;20599;-76
2021/09/08 10:17:08;;;;;;;4.45;3.47;;;28.50;70.50;;;;;;4960454;28;20047;-75
2021/09/08 10:19:40;;;;;;;5.05;4.00;;;28.70;70.10;;;;;;4960878;28;20454;-75
2021/09/08 10:22:10;;;;;;;5.07;3.88;;;28.90;70.30;;;;;;4963716;28;20035;-76
2021/09/08 10:24:45;;;;;;;5.15;4.30;;;28.90;70.10;;;;;;4969138;28;20050;-75
2021/09/08 10:27:22;;;;;;;4.10;3.80;;;28.90;68.30;;;;;;4956729;28;20058;-76
2021/09/08 10:29:55;;;;;;;4.70;3.80;;;29.00;69.20;;;;;;4970945;28;20050;-76
2021/09/08 10:32:25;;;;;;;4.05;3.65;;;29.10;69.40;;;;;;4958401;28;20043;-76
2021/09/08 10:34:54;;;;;;;5.82;4.57;;;29.10;69.00;;;;;;4965536;28;20042;-76
2021/09/08 10:37:23;;;;;;;4.38;4.00;;;29.10;69.70;;;;;;4960391;28;20062;-76
2021/09/08 10:39:54;;;;;;;6.47;4.40;;;29.20;69.20;;;;;;4964501;28;20098;-76
2021/09/08 10:42:44;;;;;;;6.40;3.50;;;29.20;69.00;;;;;;4962041;28;20045;-75
2021/09/08 10:45:17;;;;;;;5.07;4.22;;;29.10;69.80;;;;;;4965353;28;20466;-76
2021/09/08 10:47:50;;;;;;;5.93;3.85;;;29.40;70.50;;;;;;4965052;28;20069;-76
2021/09/08 10:50:41;;;;;;;4.50;3.22;;;29.50;69.10;;;;;;4958865;28;20059;-76
2021/09/08 10:53:31;;;;;;;5.65;3.60;;;29.70;68.40;;;;;;4965265;28;20422;-76
2021/09/08 10:56:01;;;;;;;4.82;3.97;;;29.70;68.10;;;;;;4947922;28;20556;-75
2021/09/08 10:58:55;;;;;;;4.78;3.65;;;29.70;68.40;;;;;;4963945;28;20485;-76
2021/09/08 11:01:24;;;;;;;6.32;4.20;;;29.40;69.20;;;;;;4964909;28;20054;-76
2021/09/08 11:03:55;;;;;;;6.60;4.00;;;29.60;69.20;;;;;;4964593;28;20474;-76
2021/09/08 11:06:35;;;;;;;4.70;4.20;;;29.80;68.50;;;;;;4958823;28;20046;-76
2021/09/08 11:09:05;;;;;;;5.50;4.25;;;29.80;68.60;;;;;;4963679;28;20077;-76
2021/09/08 11:11:33;;;;;;;4.40;3.97;;;29.90;68.60;;;;;;4962882;28;20383;-76
2021/09/08 11:14:01;;;;;;;6.68;4.35;;;29.90;68.40;;;;;;4962504;28;20053;-75
2021/09/08 11:16:31;;;;;;;6.40;4.25;;;29.90;68.80;;;;;;4962272;28;20405;-75
2021/09/08 11:19:02;;;;;;;5.07;4.07;;;29.90;69.10;;;;;;4964422;28;20047;-75
2021/09/08 11:21:32;;;;;;;4.75;3.70;;;30.00;68.60;;;;;;4962028;28;20122;-76
2021/09/08 11:24:04;;;;;;;7.07;3.83;;;30.20;68.50;;;;;;4964784;28;20046;-76
2021/09/08 11:26:33;;;;;;;4.57;4.18;;;30.30;67.80;;;;;;4961362;28;20648;-76
2021/09/08 11:29:04;;;;;;;4.22;3.90;;;30.30;68.10;;;;;;4959694;28;20413;-76
2021/09/08 11:31:34;;;;;;;4.43;4.03;;;30.00;68.30;;;;;;4961853;28;20046;-75
2021/09/08 11:34:16;;;;;;;4.07;3.20;;;30.00;68.50;;;;;;4963222;28;20039;-75
2021/09/08 11:36:44;;;;;;;5.50;3.30;;;29.80;67.70;;;;;;4962541;28;20070;-74
2021/09/08 11:39:14;;;;;;;8.77;3.50;;;29.70;67.00;;;;;;4964644;28;20038;-76
2021/09/08 11:41:56;;;;;;;5.22;3.17;;;30.10;67.00;;;;;;4970844;28;20069;-75
2021/09/08 11:44:25;;;;;;;4.07;3.35;;;30.10;66.40;;;;;;4941675;28;20128;-76
2021/09/08 11:46:53;;;;;;;4.10;3.58;;;30.20;66.40;;;;;;4969054;28;20105;-76
2021/09/08 11:49:23;;;;;;;3.63;3.33;;;30.50;64.90;;;;;;4960362;28;20097;-75
2021/09/08 11:51:51;;;;;;;4.15;3.75;;;30.70;65.00;;;;;;4961788;28;20580;-75
2021/09/08 11:54:20;;;;;;;3.70;3.40;;;30.80;64.80;;;;;;4963007;28;20086;-76
2021/09/08 11:56:53;;;;;;;10.40;4.10;;;30.50;65.00;;;;;;4959351;28;20580;-76
2021/09/08 11:59:28;;;;;;;6.57;3.65;;;30.40;65.10;;;;;;4960895;28;20054;-75
2021/09/08 12:01:57;;;;;;;4.40;3.30;;;30.70;63.90;;;;;;4957183;28;20074;-75
2021/09/08 12:04:29;;;;;;;3.10;2.80;;;30.90;62.90;;;;;;4941601;28;20038;-76
2021/09/08 12:07:00;;;;;;;3.30;3.00;;;31.20;61.90;;;;;;4959746;28;20043;-75
2021/09/08 12:09:30;;;;;;;7.55;3.72;;;31.30;62.20;;;;;;4961996;28;20042;-75
2021/09/08 12:11:59;;;;;;;5.80;3.40;;;31.40;62.00;;;;;;4962704;28;20043;-76
2021/09/08 12:14:40;;;;;;;5.13;3.22;;;31.30;62.10;;;;;;4956761;28;20490;-76
2021/09/08 12:17:23;;;;;;;3.38;3.08;;;31.30;62.70;;;;;;4954940;28;20058;-75
2021/09/08 12:19:59;;;;;;;4.20;3.10;;;31.40;62.50;;;;;;4976183;28;20067;-75
2021/09/08 12:22:30;;;;;;;4.05;3.75;;;31.50;62.90;;;;;;4962461;28;20445;-76
2021/09/08 12:24:59;;;;;;;3.67;3.28;;;31.70;62.80;;;;;;4964729;28;20408;-76
2021/09/08 12:27:32;;;;;;;3.42;3.05;;;31.70;63.00;;;;;;4955877;28;20054;-76
2021/09/08 12:30:02;;;;;;;4.00;3.65;;;31.50;62.50;;;;;;4960666;28;20544;-76
2021/09/08 12:32:44;;;;;;;3.35;3.05;;;31.20;63.00;;;;;;4961039;28;20487;-76
2021/09/08 12:35:34;;;;;;;4.22;3.63;;;31.40;63.20;;;;;;4961764;28;20047;-76
2021/09/08 12:38:17;;;;;;;3.35;3.05;;;31.60;62.70;;;;;;4962969;28;20137;-76
2021/09/08 12:41:10;;;;;;;3.97;3.58;;;31.80;62.10;;;;;;4962263;28;20330;-75
2021/09/08 12:43:40;;;;;;;3.30;3.00;;;31.90;62.10;;;;;;4960735;28;20476;-76
2021/09/08 12:46:08;;;;;;;3.67;3.33;;;31.90;61.80;;;;;;4958881;28;20055;-75
2021/09/08 12:48:36;;;;;;;3.95;3.63;;;32.00;61.90;;;;;;4944597;28;20153;-75
2021/09/08 12:51:06;;;;;;;3.50;3.20;;;32.10;62.20;;;;;;4953857;28;20063;-75
2021/09/08 12:53:34;;;;;;;4.43;3.40;;;32.00;62.30;;;;;;4961338;28;20049;-76
2021/09/08 12:56:09;;;;;;;4.95;3.35;;;32.00;62.40;;;;;;4963664;28;20077;-75
2021/09/08 12:58:37;;;;;;;4.43;3.10;;;32.10;61.50;;;;;;4961296;28;20046;-74
2021/09/08 13:01:05;;;;;;;4.97;3.42;;;32.20;60.70;;;;;;4970467;28;20035;-74